createdAt,value
2023-05-20T00:01:53.727Z,9.48
2023-05-20T00:04:20.886Z,10.07
2023-05-20T00:06:47.825Z,6.90
2023-05-20T00:09:14.683Z,7.63
2023-05-20T00:11:41.444Z,7.28
2023-05-20T00:14:08.211Z,10.77
2023-05-20T00:16:35.330Z,7.55
2023-05-20T00:19:02.242Z,8.35
2023-05-20T00:21:29.941Z,8.57
2023-05-20T00:23:56.746Z,8.00
2023-05-20T00:26:23.622Z,7.88
2023-05-20T00:28:50.378Z,17.70
2023-05-20T00:31:17.214Z,8.13
2023-05-20T00:33:44.139Z,6.93
2023-05-20T00:36:10.903Z,10.70
2023-05-20T00:38:37.691Z,6.72
2023-05-20T00:41:04.548Z,12.02
2023-05-20T00:43:31.337Z,8.23
2023-05-20T00:45:58.220Z,10.32
2023-05-20T00:48:25.120Z,10.88
2023-05-20T00:50:52.190Z,8.25
2023-05-20T00:53:19.127Z,7.57
2023-05-20T00:55:46.041Z,9.80
2023-05-20T00:58:13.260Z,7.40
2023-05-20T01:00:40.605Z,8.43
2023-05-20T01:03:07.558Z,10.48
2023-05-20T01:05:34.614Z,8.35
2023-05-20T01:08:01.695Z,8.60
2023-05-20T01:10:30.451Z,7.18
2023-05-20T01:13:01.408Z,16.42
2023-05-20T01:15:29.722Z,8.40
2023-05-20T01:18:02.048Z,8.85
2023-05-20T01:20:32.776Z,9.35
2023-05-20T01:22:59.893Z,8.05
2023-05-20T01:25:27.011Z,9.15
2023-05-20T01:27:56.085Z,7.30
2023-05-20T01:30:24.230Z,9.93
2023-05-20T01:32:55.507Z,8.98
2023-05-20T01:35:23.393Z,11.80
2023-05-20T01:37:52.779Z,9.52
2023-05-20T01:40:20.027Z,11.90
2023-05-20T01:42:53.369Z,9.38
2023-05-20T01:45:20.793Z,11.45
2023-05-20T01:47:48.044Z,9.45
2023-05-20T01:50:14.852Z,10.20
2023-05-20T01:52:41.617Z,11.40
2023-05-20T01:55:09.003Z,10.48
2023-05-20T01:57:36.131Z,10.13
2023-05-20T02:00:03.301Z,9.48
2023-05-20T02:02:30.271Z,8.75
2023-05-20T02:04:57.133Z,9.00
2023-05-20T02:07:24.008Z,13.82
2023-05-20T02:09:50.948Z,8.65
2023-05-20T02:12:17.829Z,10.75
2023-05-20T02:14:47.113Z,12.65
2023-05-20T02:17:16.796Z,10.25
2023-05-20T02:19:44.781Z,9.23
2023-05-20T02:22:11.829Z,7.80
2023-05-20T02:24:38.647Z,10.68
2023-05-20T02:27:06.509Z,8.63
2023-05-20T02:29:33.382Z,9.43
2023-05-20T02:32:00.160Z,8.25
2023-05-20T02:34:28.039Z,8.70
2023-05-20T02:36:54.999Z,10.98
2023-05-20T02:39:21.764Z,8.20
2023-05-20T02:41:48.756Z,9.60
2023-05-20T02:44:15.739Z,9.93
2023-05-20T02:46:42.633Z,8.02
2023-05-20T02:49:09.438Z,9.52
2023-05-20T02:51:37.199Z,11.38
2023-05-20T02:54:04.141Z,10.38
2023-05-20T02:56:32.798Z,9.52
2023-05-20T02:59:00.441Z,10.93
2023-05-20T03:01:27.327Z,14.20
2023-05-20T03:03:54.259Z,11.65
2023-05-20T03:06:21.131Z,8.27
2023-05-20T03:08:48.148Z,9.55
2023-05-20T03:11:14.971Z,15.77
2023-05-20T03:13:41.747Z,11.95
2023-05-20T03:16:08.611Z,9.35
2023-05-20T03:18:35.952Z,10.68
2023-05-20T03:21:02.973Z,9.75
2023-05-20T03:23:29.857Z,8.77
2023-05-20T03:25:56.737Z,10.15
2023-05-20T03:28:23.492Z,12.05
2023-05-20T03:30:50.280Z,9.05
2023-05-20T03:33:17.146Z,11.43
2023-05-20T03:35:43.927Z,11.60
2023-05-20T03:38:10.777Z,10.10
2023-05-20T03:40:37.604Z,15.50
2023-05-20T03:43:04.400Z,10.07
2023-05-20T03:45:31.210Z,10.65
2023-05-20T03:47:58.144Z,11.65
2023-05-20T03:50:24.981Z,9.85
2023-05-20T03:52:51.885Z,14.88
2023-05-20T03:55:20.769Z,9.88
2023-05-20T03:57:47.555Z,10.30
2023-05-20T04:00:14.913Z,11.23
2023-05-20T04:02:41.959Z,12.50
2023-05-20T04:05:10.394Z,9.48
2023-05-20T04:07:37.338Z,12.02
2023-05-20T04:10:05.026Z,9.07
2023-05-20T04:12:32.743Z,11.63
2023-05-20T04:15:03.223Z,11.98
2023-05-20T04:17:31.008Z,9.88
2023-05-20T04:20:00.124Z,11.45
2023-05-20T04:22:27.706Z,10.77
2023-05-20T04:24:55.149Z,12.05
2023-05-20T04:27:21.937Z,10.38
2023-05-20T04:29:48.960Z,9.52
2023-05-20T04:32:21.746Z,11.13
2023-05-20T04:34:49.011Z,12.18
2023-05-20T04:37:16.616Z,13.93
2023-05-20T04:39:44.202Z,12.10
2023-05-20T04:42:11.038Z,10.30
2023-05-20T04:44:42.442Z,11.52
2023-05-20T04:47:09.356Z,10.45
2023-05-20T04:49:36.206Z,12.18
2023-05-20T04:52:02.983Z,9.68
2023-05-20T04:54:30.260Z,9.60
2023-05-20T04:56:57.378Z,11.05
2023-05-20T04:59:24.268Z,9.10
2023-05-20T05:01:51.586Z,13.27
2023-05-20T05:04:18.593Z,10.73
2023-05-20T05:06:45.452Z,11.48
2023-05-20T05:09:14.040Z,11.85
2023-05-20T05:11:40.813Z,10.02
2023-05-20T05:14:08.190Z,10.43
2023-05-20T05:16:35.168Z,14.93
2023-05-20T05:19:02.106Z,10.93
2023-05-20T05:21:28.929Z,10.45
2023-05-20T05:23:58.069Z,10.80
2023-05-20T05:26:26.764Z,10.10
2023-05-20T05:28:55.367Z,9.93
2023-05-20T05:31:22.328Z,12.48
2023-05-20T05:33:49.275Z,12.88
2023-05-20T05:36:16.910Z,13.75
2023-05-20T05:38:45.016Z,11.98
2023-05-20T05:41:11.965Z,12.25
2023-05-20T05:43:38.779Z,11.85
2023-05-20T05:46:05.690Z,10.73
2023-05-20T05:48:32.674Z,15.45
2023-05-20T05:50:59.557Z,12.85
2023-05-20T05:53:26.367Z,16.00
2023-05-20T05:55:53.129Z,14.15
2023-05-20T05:58:20.129Z,11.32
2023-05-20T06:00:46.992Z,14.10
2023-05-20T06:03:13.838Z,12.52
2023-05-20T06:05:40.877Z,13.93
2023-05-20T06:08:07.742Z,13.32
2023-05-20T06:10:34.640Z,12.38
2023-05-20T06:13:01.545Z,15.32
2023-05-20T06:15:28.453Z,13.38
2023-05-20T06:17:55.497Z,15.13
2023-05-20T06:20:22.405Z,14.88
2023-05-20T06:22:49.202Z,13.45
2023-05-20T06:25:16.151Z,12.65
2023-05-20T06:27:43.036Z,14.43
2023-05-20T06:30:10.140Z,11.02
2023-05-20T06:32:36.942Z,19.67
2023-05-20T06:35:04.000Z,12.15
2023-05-20T06:37:30.806Z,13.95
2023-05-20T06:39:57.645Z,18.70
2023-05-20T06:42:24.507Z,14.82
2023-05-20T06:44:51.270Z,13.77
2023-05-20T06:47:18.424Z,13.57
2023-05-20T06:49:47.549Z,12.93
2023-05-20T06:52:15.154Z,11.82
2023-05-20T06:54:42.224Z,11.48
2023-05-20T06:57:09.494Z,11.38
2023-05-20T06:59:37.382Z,13.45
2023-05-20T07:02:04.827Z,14.00
2023-05-20T07:04:31.730Z,15.20
2023-05-20T07:06:58.571Z,13.70
2023-05-20T07:09:25.668Z,14.27
2023-05-20T07:11:52.607Z,12.35
2023-05-20T07:14:19.842Z,15.77
2023-05-20T07:16:46.891Z,14.50
2023-05-20T07:19:15.361Z,12.73
2023-05-20T07:21:42.225Z,15.07
2023-05-20T07:24:09.122Z,14.05
2023-05-20T07:26:36.856Z,15.20
2023-05-20T07:29:06.756Z,13.57
2023-05-20T07:31:33.884Z,13.00
2023-05-20T07:34:00.675Z,14.68
2023-05-20T07:36:28.495Z,14.60
2023-05-20T07:39:03.268Z,13.23
2023-05-20T07:41:32.261Z,13.30
2023-05-20T07:43:59.117Z,13.05
2023-05-20T07:46:26.007Z,12.82
2023-05-20T07:48:53.139Z,12.15
2023-05-20T07:51:20.141Z,10.18
2023-05-20T07:53:47.397Z,12.00
2023-05-20T07:56:14.228Z,14.52
2023-05-20T07:58:43.779Z,12.57
2023-05-20T08:01:10.647Z,13.15
2023-05-20T08:03:37.570Z,14.07
2023-05-20T08:06:04.665Z,13.23
2023-05-20T08:08:31.465Z,13.55
2023-05-20T08:10:58.437Z,21.85
2023-05-20T08:13:25.365Z,14.07
2023-05-20T08:15:56.108Z,13.85
2023-05-20T08:18:23.554Z,12.90
2023-05-20T08:20:50.351Z,12.73
2023-05-20T08:23:17.350Z,14.90
2023-05-20T08:25:47.002Z,14.00
2023-05-20T08:28:13.999Z,11.18
2023-05-20T08:30:41.748Z,11.52
2023-05-20T08:33:08.927Z,13.45
2023-05-20T08:35:36.558Z,14.32
2023-05-20T08:38:03.461Z,15.32
2023-05-20T08:40:30.276Z,13.05
2023-05-20T08:42:59.228Z,12.65
2023-05-20T08:45:28.894Z,13.25
2023-05-20T08:47:56.059Z,11.73
2023-05-20T08:50:22.939Z,13.23
2023-05-20T08:52:49.846Z,12.43
2023-05-20T08:55:27.106Z,13.15
2023-05-20T08:57:55.204Z,10.95
2023-05-20T09:00:29.143Z,11.20
2023-05-20T09:02:58.720Z,12.20
2023-05-20T09:05:27.770Z,11.73
2023-05-20T09:08:05.607Z,13.38
2023-05-20T09:10:33.651Z,10.27
2023-05-20T09:13:05.081Z,10.98
2023-05-20T09:15:33.516Z,11.68
2023-05-20T09:18:05.153Z,12.57
2023-05-20T09:20:35.282Z,12.48
2023-05-20T09:23:03.304Z,13.85
2023-05-20T09:25:30.365Z,14.35
2023-05-20T09:27:57.507Z,9.65
2023-05-20T09:30:25.117Z,12.20
2023-05-20T09:32:56.749Z,11.23
2023-05-20T09:35:24.888Z,15.48
2023-05-20T09:37:56.727Z,14.15
2023-05-20T09:40:28.561Z,11.10
2023-05-20T09:43:07.644Z,14.20
2023-05-20T09:45:35.248Z,11.48
2023-05-20T09:48:03.190Z,9.32
2023-05-20T09:50:31.890Z,10.57
2023-05-20T09:53:03.977Z,12.95
2023-05-20T09:55:32.173Z,11.63
2023-05-20T09:58:02.735Z,10.50
2023-05-20T10:00:30.026Z,11.27
2023-05-20T10:02:58.031Z,11.00
2023-05-20T10:05:27.605Z,11.85
2023-05-20T10:08:09.982Z,10.57
2023-05-20T10:11:12.959Z,10.25
2023-05-20T10:14:10.241Z,13.45
2023-05-20T10:16:54.535Z,10.55
2023-05-20T10:19:32.618Z,12.35
2023-05-20T10:22:05.371Z,12.65
2023-05-20T10:24:38.312Z,9.50
2023-05-20T10:27:09.183Z,10.10
2023-05-20T10:29:52.809Z,12.88
2023-05-20T10:32:31.545Z,12.40
2023-05-20T10:35:05.534Z,11.13
2023-05-20T10:37:46.281Z,11.65
2023-05-20T10:40:18.727Z,11.98
2023-05-20T10:42:46.357Z,12.27
2023-05-20T10:45:13.233Z,12.77
2023-05-20T10:47:56.363Z,11.48
2023-05-20T10:50:40.648Z,10.95
2023-05-20T10:53:18.530Z,15.35
2023-05-20T10:55:54.998Z,10.23
2023-05-20T10:58:23.932Z,11.52
2023-05-20T11:00:57.119Z,11.27
2023-05-20T11:03:25.617Z,11.32
2023-05-20T11:05:52.667Z,10.13
2023-05-20T11:08:27.700Z,9.80
2023-05-20T11:10:58.094Z,16.25
2023-05-20T11:13:26.025Z,10.70
2023-05-20T11:15:53.360Z,11.65
2023-05-20T11:18:20.226Z,13.85
2023-05-20T11:20:47.540Z,9.15
2023-05-20T11:23:15.731Z,11.27
2023-05-20T11:25:42.880Z,9.40
2023-05-20T11:28:14.637Z,10.20
2023-05-20T11:30:43.298Z,9.70
2023-05-20T11:33:13.809Z,9.35
2023-05-20T11:35:51.064Z,13.02
2023-05-20T11:38:18.926Z,9.43
2023-05-20T11:40:50.923Z,9.50
2023-05-20T11:43:18.665Z,10.98
2023-05-20T11:45:47.393Z,8.40
2023-05-20T11:48:15.984Z,9.35
2023-05-20T11:50:44.909Z,9.20
2023-05-20T11:53:15.707Z,9.32
2023-05-20T11:55:50.674Z,10.43
2023-05-20T11:58:19.581Z,10.73
2023-05-20T12:00:51.731Z,11.75
2023-05-20T12:03:23.937Z,9.13
2023-05-20T12:05:53.983Z,8.63
2023-05-20T12:08:20.911Z,11.82
2023-05-20T12:10:47.833Z,10.30
2023-05-20T12:13:14.754Z,11.57
2023-05-20T12:15:41.599Z,10.20
2023-05-20T12:18:08.899Z,11.27
2023-05-20T12:20:37.408Z,9.98
2023-05-20T12:23:05.100Z,10.00
2023-05-20T12:25:31.985Z,9.63
2023-05-20T12:27:59.424Z,13.75
2023-05-20T12:30:26.324Z,12.20
2023-05-20T12:32:53.388Z,13.13
2023-05-20T12:35:41.557Z,10.13
2023-05-20T12:38:08.998Z,10.63
2023-05-20T12:40:38.074Z,9.45
2023-05-20T12:43:05.793Z,12.57
2023-05-20T12:45:33.636Z,8.65
2023-05-20T12:48:00.957Z,9.10
2023-05-20T12:50:28.440Z,10.50
2023-05-20T12:52:55.506Z,10.48
2023-05-20T12:55:22.580Z,9.55
2023-05-20T12:57:50.376Z,11.00
2023-05-20T13:00:18.042Z,11.07
2023-05-20T13:02:44.999Z,10.98
2023-05-20T13:05:11.928Z,10.52
2023-05-20T13:07:39.034Z,9.77
2023-05-20T13:10:07.364Z,13.07
2023-05-20T13:12:35.066Z,9.32
2023-05-20T13:15:01.980Z,9.02
2023-05-20T13:17:28.891Z,10.02
2023-05-20T13:19:55.926Z,10.07
2023-05-20T13:22:23.303Z,10.73
2023-05-20T13:24:50.238Z,10.82
2023-05-20T13:27:16.994Z,10.07
2023-05-20T13:29:43.899Z,9.05
2023-05-20T13:32:10.922Z,12.63
2023-05-20T13:34:38.968Z,9.60
2023-05-20T13:37:06.362Z,10.05
2023-05-20T13:39:33.396Z,10.80
2023-05-20T13:42:00.397Z,11.13
2023-05-20T13:44:27.172Z,13.25
2023-05-20T13:46:54.118Z,11.23
2023-05-20T13:49:21.607Z,11.63
2023-05-20T13:51:48.450Z,10.55
2023-05-20T13:54:15.551Z,14.95
2023-05-20T13:56:42.791Z,9.82
2023-05-20T13:59:09.615Z,10.00
2023-05-20T14:01:37.877Z,10.55
2023-05-20T14:04:06.707Z,9.43
2023-05-20T14:06:33.552Z,9.63
2023-05-20T14:09:00.608Z,9.27
2023-05-20T14:11:27.490Z,10.43
2023-05-20T14:13:54.392Z,9.25
2023-05-20T14:16:21.467Z,9.13
2023-05-20T14:18:48.399Z,10.45
2023-05-20T14:21:15.225Z,9.40
2023-05-20T14:23:44.683Z,10.05
2023-05-20T14:26:11.710Z,9.90
2023-05-20T14:28:38.604Z,12.65
2023-05-20T14:31:08.233Z,9.05
2023-05-20T14:33:36.438Z,12.32
2023-05-20T14:36:03.542Z,9.60
2023-05-20T14:38:30.401Z,9.07
2023-05-20T14:40:57.141Z,11.57
2023-05-20T14:43:23.955Z,10.68
2023-05-20T14:45:50.789Z,13.18
2023-05-20T14:48:17.785Z,10.25
2023-05-20T14:50:44.644Z,8.82
2023-05-20T14:53:11.404Z,8.93
2023-05-20T14:55:38.221Z,11.90
2023-05-20T14:58:05.016Z,9.68
2023-05-20T15:00:33.069Z,8.73
2023-05-20T15:03:00.271Z,8.40
2023-05-20T15:05:27.224Z,13.80
2023-05-20T15:07:54.110Z,9.40
2023-05-20T15:10:21.311Z,13.10
2023-05-20T15:12:48.336Z,10.95
2023-05-20T15:15:15.388Z,10.30
2023-05-20T15:17:42.216Z,10.52
2023-05-20T15:20:09.966Z,11.18
2023-05-20T15:22:37.157Z,9.65
2023-05-20T15:25:04.190Z,11.88
2023-05-20T15:27:31.181Z,11.25
2023-05-20T15:29:57.952Z,9.80
2023-05-20T15:32:25.053Z,11.95
2023-05-20T15:34:51.940Z,8.60
2023-05-20T15:37:18.829Z,12.18
2023-05-20T15:39:45.613Z,9.18
2023-05-20T15:42:18.546Z,9.40
2023-05-20T15:44:46.108Z,10.98
2023-05-20T15:47:13.390Z,9.20
2023-05-20T15:49:40.229Z,9.50
2023-05-20T15:52:07.282Z,11.52
2023-05-20T15:54:34.359Z,9.43
2023-05-20T15:57:02.832Z,9.85
2023-05-20T15:59:29.694Z,8.02
2023-05-20T16:01:56.537Z,9.27
2023-05-20T16:04:23.526Z,10.13
2023-05-20T16:06:51.023Z,8.13
2023-05-20T16:09:18.094Z,13.35
2023-05-20T16:11:44.884Z,10.13
2023-05-20T16:14:11.744Z,8.52
2023-05-20T16:16:38.645Z,7.90
2023-05-20T16:19:05.799Z,10.23
2023-05-20T16:21:32.649Z,8.45
2023-05-20T16:23:59.444Z,10.05
2023-05-20T16:26:26.683Z,11.32
2023-05-20T16:28:53.516Z,11.75
2023-05-20T16:31:20.370Z,10.77
2023-05-20T16:33:47.435Z,13.57
2023-05-20T16:36:14.230Z,12.55
2023-05-20T16:38:41.074Z,13.02
2023-05-20T16:41:07.909Z,12.95
2023-05-20T16:43:34.709Z,16.33
2023-05-20T16:46:01.861Z,19.10
2023-05-20T16:48:28.744Z,12.88
2023-05-20T16:50:55.914Z,15.85
2023-05-20T16:53:22.698Z,13.10
2023-05-20T16:55:49.470Z,16.58
2023-05-20T16:58:16.464Z,15.30
2023-05-20T17:00:43.306Z,12.88
2023-05-20T17:03:10.201Z,13.88
2023-05-20T17:05:37.127Z,17.58
2023-05-20T17:08:04.045Z,18.88
2023-05-20T17:10:30.864Z,16.33
2023-05-20T17:12:57.776Z,13.65
2023-05-20T17:15:25.736Z,17.52
2023-05-20T17:17:52.659Z,14.65
2023-05-20T17:20:19.810Z,14.65
2023-05-20T17:22:46.790Z,16.15
2023-05-20T17:25:13.636Z,14.57
2023-05-20T17:27:40.435Z,16.15
2023-05-20T17:30:07.939Z,15.60
2023-05-20T17:32:34.856Z,17.25
2023-05-20T17:35:02.294Z,15.27
2023-05-20T17:37:29.095Z,22.83
2023-05-20T17:39:55.927Z,15.00
2023-05-20T17:42:22.943Z,22.25
2023-05-20T17:44:49.900Z,19.48
2023-05-20T17:47:16.800Z,17.75
2023-05-20T17:49:43.833Z,18.00
2023-05-20T17:52:10.802Z,16.52
2023-05-20T17:54:37.695Z,18.25
2023-05-20T17:57:04.667Z,17.83
2023-05-20T17:59:34.049Z,17.98
2023-05-20T18:02:01.474Z,18.38
2023-05-20T18:04:28.689Z,20.30
2023-05-20T18:06:55.952Z,19.38
2023-05-20T18:09:22.878Z,18.80
2023-05-20T18:11:49.708Z,22.05
2023-05-20T18:14:18.940Z,17.80
2023-05-20T18:16:45.828Z,21.48
2023-05-20T18:19:12.622Z,20.45
2023-05-20T18:21:39.439Z,21.40
2023-05-20T18:24:06.706Z,23.08
2023-05-20T18:26:33.805Z,18.23
2023-05-20T18:29:01.008Z,20.60
2023-05-20T18:31:27.792Z,20.83
2023-05-20T18:33:54.621Z,22.35
2023-05-20T18:36:21.570Z,23.80
2023-05-20T18:38:48.500Z,26.48
2023-05-20T18:41:15.395Z,21.25
2023-05-20T18:43:42.234Z,23.23
2023-05-20T18:46:09.060Z,21.88
2023-05-20T18:48:36.139Z,24.35
2023-05-20T18:51:03.082Z,21.92
2023-05-20T18:53:29.909Z,23.15
2023-05-20T18:56:01.618Z,25.52
2023-05-20T18:58:28.938Z,22.63
2023-05-20T19:00:56.587Z,23.35
2023-05-20T19:03:25.427Z,22.48
2023-05-20T19:05:52.459Z,24.48
2023-05-20T19:08:19.315Z,29.45
2023-05-20T19:10:46.129Z,25.67
2023-05-20T19:13:13.159Z,26.65
2023-05-20T19:15:40.040Z,29.67
2023-05-20T19:18:06.927Z,23.02
2023-05-20T19:20:34.746Z,24.83
2023-05-20T19:23:01.686Z,24.15
2023-05-20T19:25:28.531Z,25.85
2023-05-20T19:27:55.441Z,26.25
2023-05-20T19:30:22.322Z,28.98
2023-05-20T19:32:49.261Z,28.42
2023-05-20T19:35:18.337Z,31.08
2023-05-20T19:37:45.713Z,29.83
2023-05-20T19:40:13.224Z,26.65
2023-05-20T19:42:40.038Z,26.90
2023-05-20T19:45:07.517Z,24.08
2023-05-20T19:47:34.607Z,27.80
2023-05-20T19:50:01.754Z,26.70
2023-05-20T19:52:28.610Z,29.23
2023-05-20T19:54:55.385Z,25.63
2023-05-20T19:57:22.196Z,25.33
2023-05-20T19:59:50.136Z,26.90
2023-05-20T20:02:17.878Z,25.70
2023-05-20T20:04:44.891Z,29.80
2023-05-20T20:07:12.258Z,25.63
2023-05-20T20:09:39.057Z,26.58
2023-05-20T20:12:06.816Z,27.73
2023-05-20T20:14:33.631Z,26.35
2023-05-20T20:17:00.624Z,29.63
2023-05-20T20:19:28.956Z,26.83
2023-05-20T20:21:59.084Z,29.00
2023-05-20T20:24:26.718Z,29.60
2023-05-20T20:26:57.128Z,26.90
2023-05-20T20:29:24.075Z,25.50
2023-05-20T20:31:50.957Z,28.58
2023-05-20T20:34:18.156Z,28.73
2023-05-20T20:36:48.099Z,26.05
2023-05-20T20:39:19.304Z,26.90
2023-05-20T20:41:47.680Z,29.50
2023-05-20T20:44:18.901Z,27.30
2023-05-20T20:46:46.270Z,28.70
2023-05-20T20:49:13.194Z,30.83
2023-05-20T20:51:40.460Z,29.35
2023-05-20T20:54:08.293Z,29.08
2023-05-20T20:56:37.317Z,29.40
2023-05-20T20:59:05.923Z,30.85
2023-05-20T21:01:36.619Z,25.95
2023-05-20T21:04:05.083Z,29.38
2023-05-20T21:06:32.192Z,26.45
2023-05-20T21:09:02.226Z,28.55
2023-05-20T21:11:29.179Z,30.13
2023-05-20T21:13:56.293Z,31.98
2023-05-20T21:16:23.488Z,30.65
2023-05-20T21:18:50.463Z,30.45
2023-05-20T21:21:20.706Z,31.05
2023-05-20T21:23:49.348Z,31.05
2023-05-20T21:26:16.499Z,27.23
2023-05-20T21:28:43.381Z,26.52
2023-05-20T21:31:10.255Z,27.83
2023-05-20T21:33:37.268Z,27.75
2023-05-20T21:36:04.701Z,28.75
2023-05-20T21:38:31.662Z,31.95
2023-05-20T21:40:58.891Z,26.10
2023-05-20T21:43:25.745Z,28.65
2023-05-20T21:45:52.673Z,32.67
2023-05-20T21:48:19.497Z,31.35
2023-05-20T21:50:46.387Z,28.20
2023-05-20T21:53:13.280Z,28.15
2023-05-20T21:55:40.114Z,29.77
2023-05-20T21:58:07.052Z,28.30
2023-05-20T22:00:33.918Z,28.08
2023-05-20T22:03:00.914Z,30.23
2023-05-20T22:05:27.712Z,30.75
2023-05-20T22:07:54.815Z,31.02
2023-05-20T22:10:23.389Z,33.58
2023-05-20T22:12:51.069Z,30.60
2023-05-20T22:15:18.019Z,32.72
2023-05-20T22:17:44.988Z,31.13
2023-05-20T22:20:12.492Z,33.70
2023-05-20T22:22:39.607Z,29.52
2023-05-20T22:25:07.556Z,30.67
2023-05-20T22:27:35.225Z,34.35
2023-05-20T22:30:02.644Z,29.40
2023-05-20T22:32:29.426Z,31.45
2023-05-20T22:34:58.546Z,36.97
2023-05-20T22:37:29.061Z,32.88
2023-05-20T22:39:56.356Z,31.25
2023-05-20T22:42:23.190Z,30.85
2023-05-20T22:44:50.169Z,34.55
2023-05-20T22:47:17.045Z,30.55
2023-05-20T22:49:43.844Z,30.80
2023-05-20T22:52:10.830Z,31.30
2023-05-20T22:54:37.675Z,36.25
2023-05-20T22:57:05.621Z,31.35
2023-05-20T22:59:32.979Z,31.23
2023-05-20T23:01:59.978Z,30.00
2023-05-20T23:04:26.804Z,30.83
2023-05-20T23:06:53.977Z,29.05
2023-05-20T23:09:21.434Z,32.25
2023-05-20T23:11:48.192Z,35.13
2023-05-20T23:14:15.101Z,31.23
2023-05-20T23:16:42.364Z,29.77
2023-05-20T23:19:09.356Z,33.20
2023-05-20T23:21:37.633Z,31.08
2023-05-20T23:24:04.981Z,31.30
2023-05-20T23:26:34.647Z,28.85
2023-05-20T23:29:01.772Z,37.03
2023-05-20T23:31:30.204Z,31.90
2023-05-20T23:33:59.905Z,35.80
2023-05-20T23:36:29.239Z,35.38
2023-05-20T23:38:56.869Z,30.17
2023-05-20T23:41:23.874Z,33.90
2023-05-20T23:43:50.691Z,33.42
2023-05-20T23:46:18.773Z,31.13
2023-05-20T23:48:48.471Z,33.78
2023-05-20T23:51:16.529Z,35.78
2023-05-20T23:53:44.254Z,33.85
2023-05-20T23:56:11.592Z,31.35
2023-05-20T23:58:38.694Z,33.75
